createdAt,value
2023-01-28T00:00:59.375Z,70.34
2023-01-28T00:03:26.406Z,70.26
2023-01-28T00:06:01.548Z,69.83
2023-01-28T00:08:28.524Z,70.04
2023-01-28T00:10:58.309Z,69.68
2023-01-28T00:13:25.219Z,70.05
2023-01-28T00:15:59.324Z,69.76
2023-01-28T00:18:30.156Z,69.99
2023-01-28T00:21:02.664Z,70.08
2023-01-28T00:23:31.532Z,70.50
2023-01-28T00:26:03.494Z,70.12
2023-01-28T00:28:30.542Z,70.27
2023-01-28T00:30:57.573Z,69.90
2023-01-28T00:33:24.954Z,69.92
2023-01-28T00:36:00.429Z,70.13
2023-01-28T00:38:28.501Z,70.17
2023-01-28T00:40:55.980Z,69.57
2023-01-28T00:43:23.741Z,70.11
2023-01-28T00:45:50.753Z,69.61
2023-01-28T00:48:17.710Z,69.88
2023-01-28T00:50:46.133Z,69.68
2023-01-28T00:53:14.282Z,70.15
2023-01-28T00:55:41.274Z,69.75
2023-01-28T00:58:09.076Z,69.51
2023-01-28T01:00:36.129Z,69.38
2023-01-28T01:03:03.122Z,69.83
2023-01-28T01:05:30.120Z,69.62
2023-01-28T01:07:57.096Z,69.65
2023-01-28T01:10:24.103Z,69.66
2023-01-28T01:12:51.081Z,69.50
2023-01-28T01:15:20.316Z,69.92
2023-01-28T01:17:49.411Z,70.04
2023-01-28T01:20:22.767Z,70.09
2023-01-28T01:22:51.576Z,69.57
2023-01-28T01:25:19.222Z,69.54
2023-01-28T01:27:51.087Z,69.86
2023-01-28T01:30:18.706Z,69.57
2023-01-28T01:32:45.749Z,69.57
2023-01-28T01:35:13.102Z,69.42
2023-01-28T01:37:40.312Z,69.24
2023-01-28T01:40:08.070Z,69.31
2023-01-28T01:42:35.085Z,69.17
2023-01-28T01:45:24.054Z,69.52
2023-01-28T01:48:11.120Z,69.24
2023-01-28T01:50:53.651Z,69.32
2023-01-28T01:53:23.816Z,69.40
2023-01-28T01:55:56.104Z,69.22
2023-01-28T01:58:27.675Z,69.13
2023-01-28T02:00:54.693Z,69.29
2023-01-28T02:03:34.159Z,69.44
2023-01-28T02:06:01.414Z,69.66
2023-01-28T02:08:28.490Z,69.21
2023-01-28T02:11:01.501Z,69.87
2023-01-28T02:13:32.787Z,69.94
2023-01-28T02:16:02.221Z,69.57
2023-01-28T02:18:29.358Z,69.83
2023-01-28T02:20:56.263Z,69.89
2023-01-28T02:23:42.054Z,69.94
2023-01-28T02:26:18.145Z,69.76
2023-01-28T02:29:00.164Z,69.49
2023-01-28T02:31:43.272Z,69.77
2023-01-28T02:34:34.956Z,70.01
2023-01-28T02:37:43.780Z,69.94
2023-01-28T02:40:14.815Z,70.13
2023-01-28T02:42:44.710Z,70.01
2023-01-28T02:45:26.001Z,69.86
2023-01-28T02:47:59.378Z,70.39
2023-01-28T02:50:39.958Z,69.86
2023-01-28T02:53:28.458Z,69.93
2023-01-28T02:56:07.613Z,69.94
2023-01-28T02:58:56.108Z,70.05
2023-01-28T03:01:39.071Z,69.65
2023-01-28T03:04:19.605Z,70.50
2023-01-28T03:06:53.787Z,70.16
2023-01-28T03:09:23.938Z,69.66
2023-01-28T03:12:21.583Z,69.58
2023-01-28T03:15:17.226Z,69.40
2023-01-28T03:18:05.346Z,69.52
2023-01-28T03:21:05.498Z,70.03
2023-01-28T03:23:58.059Z,69.43
2023-01-28T03:26:47.056Z,69.18
2023-01-28T03:29:33.939Z,69.73
2023-01-28T03:32:24.606Z,69.79
2023-01-28T03:35:11.763Z,69.45
2023-01-28T03:37:39.083Z,69.27
2023-01-28T03:40:14.568Z,69.89
2023-01-28T03:42:43.279Z,69.49
2023-01-28T03:45:23.300Z,69.26
2023-01-28T03:47:50.467Z,69.00
2023-01-28T03:50:17.746Z,69.62
2023-01-28T03:52:55.175Z,69.14
2023-01-28T03:55:27.541Z,68.76
2023-01-28T03:57:54.684Z,69.23
2023-01-28T04:00:22.119Z,69.51
2023-01-28T04:02:49.868Z,69.36
2023-01-28T04:05:20.369Z,69.02
2023-01-28T04:07:51.762Z,68.63
2023-01-28T04:10:40.089Z,69.05
2023-01-28T04:13:19.389Z,68.93
2023-01-28T04:15:47.385Z,68.81
2023-01-28T04:18:16.063Z,68.88
2023-01-28T04:20:43.316Z,68.41
2023-01-28T04:23:10.783Z,69.28
2023-01-28T04:25:37.824Z,69.27
2023-01-28T04:28:08.133Z,68.82
2023-01-28T04:30:35.221Z,69.20
2023-01-28T04:33:14.576Z,69.01
2023-01-28T04:36:11.948Z,68.94
2023-01-28T04:39:05.078Z,69.55
2023-01-28T04:41:38.387Z,69.10
2023-01-28T04:44:17.365Z,69.42
2023-01-28T04:47:10.655Z,69.00
2023-01-28T04:49:56.407Z,68.77
2023-01-28T04:52:52.123Z,69.50
2023-01-28T04:55:37.468Z,68.29
2023-01-28T04:58:05.563Z,68.65
2023-01-28T05:00:34.030Z,68.82
2023-01-28T05:03:01.255Z,68.53
2023-01-28T05:05:28.280Z,69.25
2023-01-28T05:07:59.406Z,69.29
2023-01-28T05:10:27.637Z,69.13
2023-01-28T05:12:55.549Z,68.86
2023-01-28T05:15:22.684Z,68.80
2023-01-28T05:17:51.265Z,68.47
2023-01-28T05:20:22.288Z,68.18
2023-01-28T05:22:50.344Z,68.71
2023-01-28T05:25:23.191Z,68.38
2023-01-28T05:27:53.167Z,68.76
2023-01-28T05:30:21.145Z,68.09
2023-01-28T05:32:48.790Z,68.57
2023-01-28T05:35:20.504Z,68.83
2023-01-28T05:37:47.658Z,68.16
2023-01-28T05:40:15.482Z,68.75
2023-01-28T05:42:43.808Z,68.88
2023-01-28T05:45:24.421Z,68.96
2023-01-28T05:48:04.501Z,68.81
2023-01-28T05:50:50.232Z,68.56
2023-01-28T05:53:21.881Z,68.73
2023-01-28T05:55:51.685Z,68.20
2023-01-28T05:58:18.994Z,68.84
2023-01-28T06:00:46.133Z,68.02
2023-01-28T06:03:14.553Z,67.51
2023-01-28T06:05:43.295Z,67.24
2023-01-28T06:08:10.433Z,67.19
2023-01-28T06:10:37.818Z,67.71
2023-01-28T06:13:04.793Z,67.83
2023-01-28T06:15:57.829Z,66.79
2023-01-28T06:18:34.879Z,67.12
2023-01-28T06:21:01.969Z,66.91
2023-01-28T06:23:28.947Z,67.22
2023-01-28T06:25:57.774Z,66.94
2023-01-28T06:28:26.239Z,67.45
2023-01-28T06:30:53.722Z,67.36
2023-01-28T06:33:21.545Z,67.12
2023-01-28T06:35:48.931Z,66.39
2023-01-28T06:38:16.190Z,66.45
2023-01-28T06:40:43.142Z,67.25
2023-01-28T06:43:10.138Z,67.55
2023-01-28T06:45:37.207Z,66.58
2023-01-28T06:48:05.677Z,66.69
2023-01-28T06:50:34.249Z,67.03
2023-01-28T06:53:01.195Z,67.38
2023-01-28T06:55:28.219Z,66.76
2023-01-28T06:57:55.142Z,67.00
2023-01-28T07:00:22.180Z,67.25
2023-01-28T07:02:49.263Z,67.27
2023-01-28T07:05:16.348Z,67.02
2023-01-28T07:07:43.374Z,66.95
2023-01-28T07:10:11.285Z,67.13
2023-01-28T07:12:38.225Z,66.85
2023-01-28T07:15:05.754Z,66.22
2023-01-28T07:17:32.777Z,66.70
2023-01-28T07:19:59.915Z,66.70
2023-01-28T07:22:26.871Z,66.34
2023-01-28T07:24:53.812Z,66.31
2023-01-28T07:27:20.748Z,66.66
2023-01-28T07:29:47.693Z,65.81
2023-01-28T07:32:14.801Z,66.13
2023-01-28T07:34:43.242Z,66.50
2023-01-28T07:37:10.373Z,66.04
2023-01-28T07:39:37.345Z,66.12
2023-01-28T07:42:04.947Z,65.73
2023-01-28T07:44:37.061Z,66.06
2023-01-28T07:47:04.216Z,66.20
2023-01-28T07:49:31.285Z,66.01
2023-01-28T07:51:58.238Z,66.37
2023-01-28T07:54:25.195Z,65.34
2023-01-28T07:56:52.172Z,65.43
2023-01-28T07:59:19.386Z,66.00
2023-01-28T08:01:46.404Z,65.69
2023-01-28T08:04:13.493Z,65.36
2023-01-28T08:06:40.532Z,65.18
2023-01-28T08:09:08.562Z,65.21
2023-01-28T08:11:38.844Z,65.80
2023-01-28T08:14:05.974Z,66.20
2023-01-28T08:16:33.001Z,65.96
2023-01-28T08:18:59.992Z,65.89
2023-01-28T08:21:27.094Z,65.95
2023-01-28T08:23:54.969Z,65.75
2023-01-28T08:26:21.984Z,65.32
2023-01-28T08:28:51.262Z,65.15
2023-01-28T08:31:18.900Z,65.74
2023-01-28T08:33:46.062Z,65.38
2023-01-28T08:36:13.205Z,65.34
2023-01-28T08:38:40.191Z,65.27
2023-01-28T08:41:07.162Z,65.24
2023-01-28T08:43:34.214Z,65.12
2023-01-28T08:46:01.236Z,65.26
2023-01-28T08:48:28.328Z,64.62
2023-01-28T08:50:58.879Z,65.33
2023-01-28T08:53:25.921Z,64.82
2023-01-28T08:55:54.227Z,64.94
2023-01-28T08:58:21.315Z,64.71
2023-01-28T09:00:48.601Z,64.44
2023-01-28T09:03:15.845Z,64.68
2023-01-28T09:05:42.871Z,64.47
2023-01-28T09:08:14.963Z,64.12
2023-01-28T09:10:42.914Z,64.85
2023-01-28T09:13:12.934Z,64.35
2023-01-28T09:15:40.530Z,64.40
2023-01-28T09:18:07.673Z,64.40
2023-01-28T09:20:34.690Z,64.51
2023-01-28T09:23:02.549Z,64.29
2023-01-28T09:25:29.714Z,63.95
2023-01-28T09:27:57.755Z,64.26
2023-01-28T09:30:24.976Z,64.03
2023-01-28T09:32:53.752Z,64.87
2023-01-28T09:35:21.207Z,64.39
2023-01-28T09:37:49.050Z,64.55
2023-01-28T09:40:33.353Z,64.11
2023-01-28T09:43:09.437Z,64.52
2023-01-28T09:45:44.781Z,64.51
2023-01-28T09:48:30.962Z,64.22
2023-01-28T09:50:58.684Z,64.15
2023-01-28T09:53:37.128Z,64.56
2023-01-28T09:56:08.462Z,64.25
2023-01-28T09:58:35.566Z,64.14
2023-01-28T10:01:09.227Z,64.03
2023-01-28T10:03:38.890Z,64.39
2023-01-28T10:06:37.017Z,63.82
2023-01-28T10:09:24.205Z,63.78
2023-01-28T10:12:30.332Z,64.03
2023-01-28T10:15:34.414Z,63.59
2023-01-28T10:18:17.542Z,63.61
2023-01-28T10:20:51.222Z,63.81
2023-01-28T10:23:22.520Z,63.65
2023-01-28T10:25:49.615Z,63.52
2023-01-28T10:28:30.086Z,63.41
2023-01-28T10:30:57.442Z,64.04
2023-01-28T10:33:37.441Z,63.86
2023-01-28T10:36:05.055Z,64.25
2023-01-28T10:38:32.320Z,63.78
2023-01-28T10:41:04.239Z,64.28
2023-01-28T10:43:35.695Z,63.86
2023-01-28T10:46:05.656Z,63.95
2023-01-28T10:48:42.879Z,63.99
2023-01-28T10:51:09.960Z,63.74
2023-01-28T10:53:42.872Z,63.22
2023-01-28T10:56:25.225Z,64.26
2023-01-28T10:59:20.977Z,63.32
2023-01-28T11:01:52.220Z,63.72
2023-01-28T11:04:27.357Z,63.58
2023-01-28T11:07:04.265Z,63.30
2023-01-28T11:09:34.637Z,63.17
2023-01-28T11:12:17.663Z,63.49
2023-01-28T11:14:51.632Z,63.34
2023-01-28T11:17:20.475Z,63.37
2023-01-28T11:19:47.573Z,63.68
2023-01-28T11:22:21.984Z,63.86
2023-01-28T11:24:49.106Z,63.18
2023-01-28T11:27:18.740Z,63.46
2023-01-28T11:29:45.961Z,63.09
2023-01-28T11:32:31.716Z,63.07
2023-01-28T11:35:00.525Z,63.57
2023-01-28T11:37:29.329Z,63.46
2023-01-28T11:40:21.236Z,62.72
2023-01-28T11:42:51.275Z,63.12
2023-01-28T11:45:28.481Z,63.38
2023-01-28T11:48:01.271Z,62.32
2023-01-28T11:50:43.434Z,62.39
2023-01-28T11:53:46.768Z,63.01
2023-01-28T11:56:30.839Z,62.76
2023-01-28T11:59:07.102Z,63.73
2023-01-28T12:01:46.728Z,63.86
2023-01-28T12:04:18.910Z,63.18
2023-01-28T12:07:19.963Z,63.55
2023-01-28T12:09:57.922Z,63.27
2023-01-28T12:12:55.068Z,63.71
2023-01-28T12:15:41.183Z,62.80
2023-01-28T12:18:18.681Z,62.91
2023-01-28T12:20:49.511Z,63.41
2023-01-28T12:23:38.637Z,63.37
2023-01-28T12:26:35.794Z,63.90
2023-01-28T12:29:19.549Z,63.47
2023-01-28T12:32:43.772Z,63.47
2023-01-28T12:35:39.181Z,63.11
2023-01-28T12:38:15.323Z,63.05
2023-01-28T12:41:18.493Z,63.66
2023-01-28T12:44:02.118Z,63.57
2023-01-28T12:46:35.919Z,63.31
2023-01-28T12:49:10.399Z,63.67
2023-01-28T12:51:54.855Z,63.76
2023-01-28T12:54:30.761Z,63.63
2023-01-28T12:56:58.449Z,63.36
2023-01-28T12:59:49.662Z,64.59
2023-01-28T13:02:21.960Z,63.99
2023-01-28T13:05:00.690Z,64.31
2023-01-28T13:07:46.263Z,63.95
2023-01-28T13:10:28.219Z,63.86
2023-01-28T13:12:57.023Z,64.09
2023-01-28T13:15:25.438Z,63.83
2023-01-28T13:18:04.700Z,64.18
2023-01-28T13:20:54.156Z,64.11
2023-01-28T13:23:24.528Z,64.27
2023-01-28T13:25:55.736Z,64.33
2023-01-28T13:28:31.644Z,64.08
2023-01-28T13:31:17.414Z,64.15
2023-01-28T13:33:48.895Z,63.95
2023-01-28T13:36:24.127Z,63.97
2023-01-28T13:39:14.735Z,64.47
2023-01-28T13:41:53.557Z,64.58
2023-01-28T13:44:26.330Z,64.40
2023-01-28T13:47:14.848Z,64.66
2023-01-28T13:49:56.886Z,64.99
2023-01-28T13:52:33.185Z,65.17
2023-01-28T13:55:25.956Z,64.70
2023-01-28T13:58:09.222Z,65.49
2023-01-28T14:01:14.159Z,65.46
2023-01-28T14:03:58.630Z,64.76
2023-01-28T14:06:25.606Z,65.06
2023-01-28T14:09:11.285Z,65.01
2023-01-28T14:11:53.091Z,65.00
2023-01-28T14:14:34.892Z,65.24
2023-01-28T14:17:08.171Z,65.73
2023-01-28T14:19:37.952Z,65.26
2023-01-28T14:22:09.607Z,65.47
2023-01-28T14:24:40.665Z,66.16
2023-01-28T14:27:19.614Z,66.30
2023-01-28T14:30:05.238Z,66.23
2023-01-28T14:32:34.232Z,65.66
2023-01-28T14:35:08.480Z,65.48
2023-01-28T14:37:35.934Z,65.47
2023-01-28T14:40:06.198Z,65.85
2023-01-28T14:42:41.716Z,65.43
2023-01-28T14:45:30.563Z,66.37
2023-01-28T14:48:00.564Z,65.58
2023-01-28T14:50:52.412Z,65.88
2023-01-28T14:53:25.466Z,65.99
2023-01-28T14:55:58.940Z,65.60
2023-01-28T14:58:32.600Z,66.04
2023-01-28T15:01:01.020Z,66.74
2023-01-28T15:03:29.871Z,65.98
2023-01-28T15:06:20.977Z,66.54
2023-01-28T15:08:48.626Z,66.18
2023-01-28T15:11:21.077Z,65.51
2023-01-28T15:13:51.342Z,65.30
2023-01-28T15:16:23.100Z,65.61
2023-01-28T15:18:51.148Z,65.45
2023-01-28T15:21:23.356Z,65.33
2023-01-28T15:23:54.922Z,65.25
2023-01-28T15:26:24.796Z,65.85
2023-01-28T15:28:53.001Z,65.43
2023-01-28T15:31:29.096Z,65.87
2023-01-28T15:34:11.236Z,65.69
2023-01-28T15:36:38.967Z,65.93
2023-01-28T15:39:23.921Z,66.47
2023-01-28T15:42:02.211Z,65.92
2023-01-28T15:44:35.963Z,66.34
2023-01-28T15:47:17.903Z,66.59
2023-01-28T15:49:48.751Z,66.09
2023-01-28T15:52:15.927Z,66.09
2023-01-28T15:54:45.870Z,65.88
2023-01-28T15:57:19.000Z,66.36
2023-01-28T15:59:47.539Z,65.67
2023-01-28T16:02:18.561Z,66.68
2023-01-28T16:05:00.514Z,66.13
2023-01-28T16:07:30.821Z,66.47
2023-01-28T16:10:02.265Z,65.97
2023-01-28T16:12:31.169Z,66.10
2023-01-28T16:15:01.386Z,65.85
2023-01-28T16:17:39.009Z,65.95
2023-01-28T16:20:09.639Z,66.84
2023-01-28T16:22:39.333Z,66.74
2023-01-28T16:25:21.346Z,66.21
2023-01-28T16:27:48.600Z,67.07
2023-01-28T16:30:16.877Z,66.91
2023-01-28T16:32:44.372Z,66.85
2023-01-28T16:35:21.982Z,66.45
2023-01-28T16:37:49.984Z,66.61
2023-01-28T16:40:19.990Z,67.01
2023-01-28T16:42:50.508Z,66.74
2023-01-28T16:45:21.007Z,67.21
2023-01-28T16:47:48.062Z,67.28
2023-01-28T16:50:15.922Z,67.06
2023-01-28T16:52:45.266Z,67.25
2023-01-28T16:55:19.179Z,67.29
2023-01-28T16:57:49.072Z,66.85
2023-01-28T17:00:18.509Z,66.55
2023-01-28T17:02:45.678Z,66.54
2023-01-28T17:05:12.950Z,67.08
2023-01-28T17:07:39.952Z,67.17
2023-01-28T17:10:07.553Z,66.40
2023-01-28T17:12:34.817Z,66.63
2023-01-28T17:15:04.005Z,66.49
2023-01-28T17:17:31.716Z,66.93
2023-01-28T17:19:58.855Z,66.72
2023-01-28T17:22:25.857Z,66.82
2023-01-28T17:24:52.828Z,66.13
2023-01-28T17:27:19.811Z,66.49
2023-01-28T17:29:46.780Z,67.09
2023-01-28T17:32:13.778Z,67.37
2023-01-28T17:34:40.797Z,67.30
2023-01-28T17:37:07.724Z,66.70
2023-01-28T17:39:34.666Z,66.54
2023-01-28T17:42:01.657Z,66.71
2023-01-28T17:44:28.686Z,67.08
2023-01-28T17:46:55.637Z,66.46
2023-01-28T17:49:22.645Z,66.89
2023-01-28T17:51:49.623Z,67.34
2023-01-28T17:54:17.094Z,66.49
2023-01-28T17:56:44.107Z,66.93
2023-01-28T17:59:11.787Z,66.77
2023-01-28T18:01:38.778Z,67.11
2023-01-28T18:04:05.828Z,67.07
2023-01-28T18:06:35.731Z,67.00
2023-01-28T18:09:03.749Z,66.53
2023-01-28T18:11:32.225Z,66.96
2023-01-28T18:13:59.173Z,66.98
2023-01-28T18:16:26.176Z,67.26
2023-01-28T18:18:53.166Z,66.71
2023-01-28T18:21:51.362Z,66.92
2023-01-28T18:24:19.774Z,66.44
2023-01-28T18:26:46.911Z,66.73
2023-01-28T18:29:17.170Z,67.06
2023-01-28T18:31:44.681Z,66.36
2023-01-28T18:34:12.713Z,66.68
2023-01-28T18:36:39.715Z,67.14
2023-01-28T18:39:06.657Z,66.71
2023-01-28T18:41:33.718Z,66.54
2023-01-28T18:44:00.834Z,66.80
2023-01-28T18:46:27.826Z,66.98
2023-01-28T18:48:57.448Z,66.21
2023-01-28T18:51:30.386Z,66.82
2023-01-28T18:54:02.921Z,66.24
2023-01-28T18:56:30.851Z,66.53
2023-01-28T18:58:59.998Z,66.26
2023-01-28T19:01:27.679Z,66.36
2023-01-28T19:03:55.694Z,66.87
2023-01-28T19:06:23.268Z,66.98
2023-01-28T19:08:59.430Z,66.81
2023-01-28T19:11:28.274Z,67.11
2023-01-28T19:13:55.465Z,67.58
2023-01-28T19:16:22.667Z,66.50
2023-01-28T19:19:00.866Z,67.01
2023-01-28T19:21:29.790Z,66.88
2023-01-28T19:24:02.593Z,66.99
2023-01-28T19:26:31.300Z,67.38
2023-01-28T19:28:58.956Z,67.02
2023-01-28T19:31:27.208Z,67.19
2023-01-28T19:33:59.206Z,66.29
2023-01-28T19:36:28.430Z,66.14
2023-01-28T19:39:03.771Z,66.95
2023-01-28T19:41:31.183Z,66.69
2023-01-28T19:43:58.705Z,66.96
2023-01-28T19:46:26.529Z,66.84
2023-01-28T19:48:54.398Z,66.82
2023-01-28T19:51:22.785Z,66.96
2023-01-28T19:53:51.616Z,66.57
2023-01-28T19:56:19.839Z,66.51
2023-01-28T19:58:47.432Z,67.21
2023-01-28T20:01:18.476Z,66.89
2023-01-28T20:03:46.135Z,66.93
2023-01-28T20:06:16.624Z,66.88
2023-01-28T20:08:44.747Z,67.04
2023-01-28T20:11:15.411Z,66.82
2023-01-28T20:13:44.723Z,67.58
2023-01-28T20:16:20.934Z,67.42
2023-01-28T20:18:53.692Z,66.67
2023-01-28T20:21:21.615Z,67.85
2023-01-28T20:23:51.682Z,67.39
2023-01-28T20:26:21.375Z,67.35
2023-01-28T20:28:49.487Z,67.33
2023-01-28T20:31:17.479Z,67.28
2023-01-28T20:33:44.919Z,67.61
2023-01-28T20:36:14.527Z,67.51
2023-01-28T20:38:44.109Z,67.10
2023-01-28T20:41:16.524Z,67.26
2023-01-28T20:43:49.252Z,66.93
2023-01-28T20:46:29.708Z,67.63
2023-01-28T20:49:03.335Z,67.55
2023-01-28T20:51:35.892Z,67.75
2023-01-28T20:54:03.526Z,67.26
2023-01-28T20:56:31.323Z,67.47
2023-01-28T20:59:04.374Z,67.39
2023-01-28T21:01:34.280Z,67.60
2023-01-28T21:04:02.218Z,67.75
2023-01-28T21:06:29.820Z,67.32
2023-01-28T21:09:11.221Z,67.35
2023-01-28T21:12:00.045Z,67.81
2023-01-28T21:14:27.034Z,67.58
2023-01-28T21:16:54.093Z,67.77
2023-01-28T21:19:21.185Z,67.24
2023-01-28T21:21:48.217Z,67.15
2023-01-28T21:24:15.212Z,67.52
2023-01-28T21:26:42.271Z,67.19
2023-01-28T21:29:09.359Z,67.50
2023-01-28T21:31:38.084Z,67.68
2023-01-28T21:34:05.032Z,67.13
2023-01-28T21:36:33.999Z,66.93
2023-01-28T21:39:01.669Z,66.94
2023-01-28T21:41:31.531Z,67.44
2023-01-28T21:43:59.115Z,66.94
2023-01-28T21:46:29.337Z,67.06
2023-01-28T21:49:01.673Z,66.98
2023-01-28T21:51:46.417Z,66.91
2023-01-28T21:54:19.474Z,66.98
2023-01-28T21:56:49.464Z,66.97
2023-01-28T21:59:29.776Z,66.78
2023-01-28T22:02:05.199Z,67.04
2023-01-28T22:04:35.137Z,66.90
2023-01-28T22:07:04.314Z,67.27
2023-01-28T22:09:33.545Z,66.79
2023-01-28T22:12:03.497Z,66.87
2023-01-28T22:14:30.811Z,67.22
2023-01-28T22:16:57.804Z,66.96
2023-01-28T22:19:24.918Z,67.38
2023-01-28T22:21:52.102Z,67.43
2023-01-28T22:24:22.608Z,66.85
2023-01-28T22:26:49.810Z,66.89
2023-01-28T22:29:19.032Z,67.24
2023-01-28T22:31:47.465Z,67.36
2023-01-28T22:34:15.309Z,66.90
2023-01-28T22:36:42.725Z,67.15
2023-01-28T22:39:13.862Z,67.14
2023-01-28T22:41:41.941Z,67.47
2023-01-28T22:44:09.039Z,66.78
2023-01-28T22:46:37.741Z,67.25
2023-01-28T22:49:05.609Z,67.33
2023-01-28T22:51:35.209Z,67.49
2023-01-28T22:54:02.566Z,67.57
2023-01-28T22:56:30.779Z,67.56
2023-01-28T22:58:59.829Z,67.46
2023-01-28T23:01:26.904Z,67.23
2023-01-28T23:03:56.270Z,68.18
2023-01-28T23:06:25.458Z,67.36
2023-01-28T23:08:52.648Z,67.62
2023-01-28T23:11:25.711Z,67.54
2023-01-28T23:14:14.456Z,67.39
2023-01-28T23:17:00.170Z,67.58
2023-01-28T23:19:45.853Z,66.91
2023-01-28T23:22:35.324Z,66.75
2023-01-28T23:25:02.292Z,67.29
2023-01-28T23:27:30.151Z,66.89
2023-01-28T23:29:57.128Z,67.33
2023-01-28T23:32:24.117Z,67.14
2023-01-28T23:34:51.154Z,67.20
2023-01-28T23:37:18.494Z,67.26
2023-01-28T23:39:45.481Z,67.98
2023-01-28T23:42:17.693Z,67.67
2023-01-28T23:44:44.906Z,67.59
2023-01-28T23:47:11.914Z,66.90
2023-01-28T23:49:39.403Z,66.98
2023-01-28T23:52:07.412Z,67.43
2023-01-28T23:54:34.830Z,67.10
2023-01-28T23:57:02.653Z,67.96
2023-01-28T23:59:29.908Z,67.66
